KCBM/CBM METAR and TAF weather

Enter ICAO airport designator
Station Type Date Time Source
KCBM METAR 2020/01/20 15:56 UTC NOAA

KCBM 201556Z AUTO 02009KT 10SM CLR M01/M09 A3057 RMK AO2 SLP357 T10071089 $


Station Type Date Time Source
KCBM Decoded METAR 2020/01/20 15:56 UTC NOAA

Columbus Air Force Base, MS, United States (KCBM) 33-39N 088-27W
Jan 20, 2020 - 10:56 AM EST / 2020.01.20 1556 UTC
Wind: from the NNE (020 degrees) at 10 MPH (9 KT):0
Visibility: 10 mile(s):0
Sky conditions: clear
Temperature: 30.7 F (-0.7 C)
Windchill: 23 F (-5 C):1
Dew Point: 16.0 F (-8.9 C)
Relative Humidity: 53%
Pressure (altimeter): 30.57 in. Hg (1035 hPa)
ob: KCBM 201556Z AUTO 02009KT 10SM CLR M01/M09 A3057 RMK AO2 SLP357 T10071089
cycle: 16

Station Type Date Time Source
KCBM TAF 2020/01/18 00:58 UTC NOAA

TAF
AMD KCBM 180041Z 1800/1823 10010KT 9999 OVC045 QNH3019INS
BECMG 1811/1812 18012G18KT 9999 VCTS BKN020CB OVC050 QNH3019INS
BECMG 1814/1815 18010G25KT 1600 TSRA BKN007CB OVC010 QNH3006INS
BECMG 1821/1822 21009KT 8000 -SHRA OVC007 QNH3006INS TX16/1801Z TN10/1811Z LAST NO
AMDS AFT 1800 NEXT 2109

Example: see airport list